sensor_id;sensor_type;location;lat;lon;timestamp;P1;durP1;ratioP1;P2;durP2;ratioP2
16600;SDS011;34891;48.164;11.572;2022-08-21T00:02:53;3.30;;;1.90;;
16600;SDS011;34891;48.164;11.572;2022-08-21T00:07:56;3.33;;;1.80;;
16600;SDS011;34891;48.164;11.572;2022-08-21T00:12:59;4.53;;;2.13;;
16600;SDS011;34891;48.164;11.572;2022-08-21T00:18:04;2.92;;;1.80;;
16600;SDS011;34891;48.164;11.572;2022-08-21T00:23:07;2.47;;;1.52;;
16600;SDS011;34891;48.164;11.572;2022-08-21T00:28:11;5.10;;;1.75;;
16600;SDS011;34891;48.164;11.572;2022-08-21T00:38:18;2.30;;;1.67;;
16600;SDS011;34891;48.164;11.572;2022-08-21T00:43:22;3.17;;;1.92;;
16600;SDS011;34891;48.164;11.572;2022-08-21T00:48:25;4.13;;;2.03;;
16600;SDS011;34891;48.164;11.572;2022-08-21T00:53:30;2.58;;;1.60;;
16600;SDS011;34891;48.164;11.572;2022-08-21T00:58:33;2.75;;;1.65;;
16600;SDS011;34891;48.164;11.572;2022-08-21T01:03:38;4.95;;;1.88;;
16600;SDS011;34891;48.164;11.572;2022-08-21T01:08:46;3.88;;;1.85;;
16600;SDS011;34891;48.164;11.572;2022-08-21T01:13:49;4.40;;;2.00;;
16600;SDS011;34891;48.164;11.572;2022-08-21T01:18:53;4.85;;;2.20;;
16600;SDS011;34891;48.164;11.572;2022-08-21T01:23:57;3.75;;;1.95;;
16600;SDS011;34891;48.164;11.572;2022-08-21T01:29:02;3.00;;;1.90;;
16600;SDS011;34891;48.164;11.572;2022-08-21T01:34:07;2.78;;;1.70;;
16600;SDS011;34891;48.164;11.572;2022-08-21T01:39:12;3.92;;;2.22;;
16600;SDS011;34891;48.164;11.572;2022-08-21T01:44:16;2.63;;;1.83;;
16600;SDS011;34891;48.164;11.572;2022-08-21T01:49:22;3.03;;;1.80;;
16600;SDS011;34891;48.164;11.572;2022-08-21T01:54:26;3.40;;;1.87;;
16600;SDS011;34891;48.164;11.572;2022-08-21T01:59:29;3.95;;;1.90;;
16600;SDS011;34891;48.164;11.572;2022-08-21T02:04:32;2.63;;;1.77;;
16600;SDS011;34891;48.164;11.572;2022-08-21T02:09:36;2.73;;;1.57;;
16600;SDS011;34891;48.164;11.572;2022-08-21T02:14:40;4.55;;;1.80;;
16600;SDS011;34891;48.164;11.572;2022-08-21T02:19:43;5.15;;;2.00;;
16600;SDS011;34891;48.164;11.572;2022-08-21T02:24:47;3.03;;;1.63;;
16600;SDS011;34891;48.164;11.572;2022-08-21T02:29:56;1.42;;;0.98;;
16600;SDS011;34891;48.164;11.572;2022-08-21T02:40:03;3.65;;;1.88;;
16600;SDS011;34891;48.164;11.572;2022-08-21T02:45:08;3.25;;;1.88;;
16600;SDS011;34891;48.164;11.572;2022-08-21T02:50:11;3.77;;;1.70;;
16600;SDS011;34891;48.164;11.572;2022-08-21T02:55:15;3.35;;;2.20;;
16600;SDS011;34891;48.164;11.572;2022-08-21T03:00:18;4.50;;;2.20;;
16600;SDS011;34891;48.164;11.572;2022-08-21T03:05:21;3.90;;;2.03;;
16600;SDS011;34891;48.164;11.572;2022-08-21T03:10:26;3.40;;;2.20;;
16600;SDS011;34891;48.164;11.572;2022-08-21T03:15:30;4.05;;;1.92;;
16600;SDS011;34891;48.164;11.572;2022-08-21T03:20:33;3.60;;;2.20;;
16600;SDS011;34891;48.164;11.572;2022-08-21T03:25:38;3.58;;;1.25;;
16600;SDS011;34891;48.164;11.572;2022-08-21T03:30:41;3.30;;;1.90;;
16600;SDS011;34891;48.164;11.572;2022-08-21T03:35:47;2.50;;;1.70;;
16600;SDS011;34891;48.164;11.572;2022-08-21T03:40:51;3.13;;;1.45;;
16600;SDS011;34891;48.164;11.572;2022-08-21T03:45:54;2.20;;;1.40;;
16600;SDS011;34891;48.164;11.572;2022-08-21T03:50:57;5.13;;;2.35;;
16600;SDS011;34891;48.164;11.572;2022-08-21T03:56:01;3.50;;;2.17;;
16600;SDS011;34891;48.164;11.572;2022-08-21T04:01:05;5.25;;;2.20;;
16600;SDS011;34891;48.164;11.572;2022-08-21T04:06:08;3.67;;;2.28;;
16600;SDS011;34891;48.164;11.572;2022-08-21T04:11:13;3.05;;;1.83;;
16600;SDS011;34891;48.164;11.572;2022-08-21T04:16:16;1.90;;;1.48;;
16600;SDS011;34891;48.164;11.572;2022-08-21T04:21:19;3.70;;;2.20;;
16600;SDS011;34891;48.164;11.572;2022-08-21T04:26:26;3.05;;;2.00;;
16600;SDS011;34891;48.164;11.572;2022-08-21T04:31:29;3.22;;;2.13;;
16600;SDS011;34891;48.164;11.572;2022-08-21T04:36:32;2.85;;;1.92;;
16600;SDS011;34891;48.164;11.572;2022-08-21T04:41:36;5.15;;;2.00;;
16600;SDS011;34891;48.164;11.572;2022-08-21T04:46:39;4.38;;;1.85;;
16600;SDS011;34891;48.164;11.572;2022-08-21T04:51:42;2.93;;;1.90;;
16600;SDS011;34891;48.164;11.572;2022-08-21T04:56:47;3.27;;;1.70;;
16600;SDS011;34891;48.164;11.572;2022-08-21T05:01:51;3.10;;;1.80;;
16600;SDS011;34891;48.164;11.572;2022-08-21T05:06:58;2.80;;;2.00;;
16600;SDS011;34891;48.164;11.572;2022-08-21T05:12:04;3.75;;;2.10;;
16600;SDS011;34891;48.164;11.572;2022-08-21T05:17:07;3.63;;;1.58;;
16600;SDS011;34891;48.164;11.572;2022-08-21T05:22:10;4.17;;;2.33;;
16600;SDS011;34891;48.164;11.572;2022-08-21T05:27:14;2.38;;;1.40;;
16600;SDS011;34891;48.164;11.572;2022-08-21T05:32:18;5.10;;;2.10;;
16600;SDS011;34891;48.164;11.572;2022-08-21T05:37:20;3.95;;;1.95;;
16600;SDS011;34891;48.164;11.572;2022-08-21T05:42:24;2.83;;;1.80;;
16600;SDS011;34891;48.164;11.572;2022-08-21T05:47:28;2.60;;;1.90;;
16600;SDS011;34891;48.164;11.572;2022-08-21T05:52:31;6.87;;;2.17;;
16600;SDS011;34891;48.164;11.572;2022-08-21T05:57:35;2.47;;;1.90;;
16600;SDS011;34891;48.164;11.572;2022-08-21T06:02:38;2.83;;;1.80;;
16600;SDS011;34891;48.164;11.572;2022-08-21T06:07:42;2.05;;;1.65;;
16600;SDS011;34891;48.164;11.572;2022-08-21T06:12:46;2.22;;;1.40;;
16600;SDS011;34891;48.164;11.572;2022-08-21T06:17:49;3.00;;;1.60;;
16600;SDS011;34891;48.164;11.572;2022-08-21T06:22:52;1.87;;;1.30;;
16600;SDS011;34891;48.164;11.572;2022-08-21T06:28:01;3.57;;;1.80;;
16600;SDS011;34891;48.164;11.572;2022-08-21T06:33:04;2.72;;;1.70;;
16600;SDS011;34891;48.164;11.572;2022-08-21T06:38:07;2.95;;;1.95;;
16600;SDS011;34891;48.164;11.572;2022-08-21T06:43:12;3.25;;;1.85;;
16600;SDS011;34891;48.164;11.572;2022-08-21T06:48:15;3.05;;;1.42;;
16600;SDS011;34891;48.164;11.572;2022-08-21T06:53:20;2.35;;;1.50;;
16600;SDS011;34891;48.164;11.572;2022-08-21T07:03:27;2.17;;;1.40;;
16600;SDS011;34891;48.164;11.572;2022-08-21T07:08:31;3.30;;;2.05;;
16600;SDS011;34891;48.164;11.572;2022-08-21T07:13:37;2.35;;;1.92;;
16600;SDS011;34891;48.164;11.572;2022-08-21T07:18:41;1.55;;;1.45;;
16600;SDS011;34891;48.164;11.572;2022-08-21T07:23:45;4.10;;;1.95;;
16600;SDS011;34891;48.164;11.572;2022-08-21T07:28:48;3.30;;;2.15;;
16600;SDS011;34891;48.164;11.572;2022-08-21T07:33:53;2.90;;;2.20;;
16600;SDS011;34891;48.164;11.572;2022-08-21T07:38:56;3.47;;;2.47;;
16600;SDS011;34891;48.164;11.572;2022-08-21T07:43:59;3.83;;;2.40;;
16600;SDS011;34891;48.164;11.572;2022-08-21T07:49:05;1.98;;;1.80;;
16600;SDS011;34891;48.164;11.572;2022-08-21T07:54:18;3.78;;;2.72;;
16600;SDS011;34891;48.164;11.572;2022-08-21T07:59:34;2.90;;;2.30;;
16600;SDS011;34891;48.164;11.572;2022-08-21T08:04:40;3.65;;;3.08;;
16600;SDS011;34891;48.164;11.572;2022-08-21T08:09:51;6.35;;;2.95;;
16600;SDS011;34891;48.164;11.572;2022-08-21T08:15:05;3.75;;;2.67;;
16600;SDS011;34891;48.164;11.572;2022-08-21T08:20:20;4.05;;;2.58;;
16600;SDS011;34891;48.164;11.572;2022-08-21T08:25:28;5.20;;;3.05;;
16600;SDS011;34891;48.164;11.572;2022-08-21T08:30:46;4.35;;;2.63;;
16600;SDS011;34891;48.164;11.572;2022-08-21T08:35:53;3.78;;;2.75;;
16600;SDS011;34891;48.164;11.572;2022-08-21T08:40:58;4.45;;;2.55;;
16600;SDS011;34891;48.164;11.572;2022-08-21T08:46:14;5.22;;;2.85;;
16600;SDS011;34891;48.164;11.572;2022-08-21T08:51:20;3.50;;;2.70;;
16600;SDS011;34891;48.164;11.572;2022-08-21T08:56:27;3.85;;;3.00;;
16600;SDS011;34891;48.164;11.572;2022-08-21T09:01:30;3.90;;;3.10;;
16600;SDS011;34891;48.164;11.572;2022-08-21T09:11:59;3.08;;;2.83;;
16600;SDS011;34891;48.164;11.572;2022-08-21T09:17:04;3.75;;;3.13;;
16600;SDS011;34891;48.164;11.572;2022-08-21T09:22:13;4.38;;;3.35;;
16600;SDS011;34891;48.164;11.572;2022-08-21T09:27:19;4.88;;;3.00;;
16600;SDS011;34891;48.164;11.572;2022-08-21T09:32:24;3.83;;;3.33;;
16600;SDS011;34891;48.164;11.572;2022-08-21T09:37:45;3.63;;;2.38;;
16600;SDS011;34891;48.164;11.572;2022-08-21T09:42:55;6.75;;;2.90;;
16600;SDS011;34891;48.164;11.572;2022-08-21T09:48:07;5.45;;;3.60;;
16600;SDS011;34891;48.164;11.572;2022-08-21T09:53:15;4.15;;;2.58;;
16600;SDS011;34891;48.164;11.572;2022-08-21T09:58:20;4.63;;;3.45;;
16600;SDS011;34891;48.164;11.572;2022-08-21T10:03:23;5.00;;;4.13;;
16600;SDS011;34891;48.164;11.572;2022-08-21T10:08:27;6.53;;;3.08;;
16600;SDS011;34891;48.164;11.572;2022-08-21T10:13:36;3.65;;;2.83;;
16600;SDS011;34891;48.164;11.572;2022-08-21T10:18:43;4.03;;;3.22;;
16600;SDS011;34891;48.164;11.572;2022-08-21T10:23:54;3.20;;;2.83;;
16600;SDS011;34891;48.164;11.572;2022-08-21T10:29:05;6.00;;;5.03;;
16600;SDS011;34891;48.164;11.572;2022-08-21T10:34:13;4.35;;;2.78;;
16600;SDS011;34891;48.164;11.572;2022-08-21T10:39:18;4.45;;;2.50;;
16600;SDS011;34891;48.164;11.572;2022-08-21T10:44:39;3.25;;;2.95;;
16600;SDS011;34891;48.164;11.572;2022-08-21T10:49:48;4.25;;;2.92;;
16600;SDS011;34891;48.164;11.572;2022-08-21T10:54:55;3.22;;;2.92;;
16600;SDS011;34891;48.164;11.572;2022-08-21T11:00:03;4.10;;;3.20;;
16600;SDS011;34891;48.164;11.572;2022-08-21T11:05:10;3.40;;;3.10;;
16600;SDS011;34891;48.164;11.572;2022-08-21T11:10:15;4.45;;;3.25;;
16600;SDS011;34891;48.164;11.572;2022-08-21T11:15:38;4.28;;;2.65;;
16600;SDS011;34891;48.164;11.572;2022-08-21T11:20:49;3.28;;;2.95;;
16600;SDS011;34891;48.164;11.572;2022-08-21T11:25:53;2.83;;;2.63;;
16600;SDS011;34891;48.164;11.572;2022-08-21T11:31:04;3.90;;;2.80;;
16600;SDS011;34891;48.164;11.572;2022-08-21T11:36:11;5.40;;;4.32;;
16600;SDS011;34891;48.164;11.572;2022-08-21T11:41:21;2.63;;;2.25;;
16600;SDS011;34891;48.164;11.572;2022-08-21T11:46:31;2.83;;;2.30;;
16600;SDS011;34891;48.164;11.572;2022-08-21T11:51:41;3.85;;;2.80;;
16600;SDS011;34891;48.164;11.572;2022-08-21T11:56:45;3.17;;;2.88;;
16600;SDS011;34891;48.164;11.572;2022-08-21T12:01:50;2.83;;;2.30;;
16600;SDS011;34891;48.164;11.572;2022-08-21T12:06:54;4.93;;;2.70;;
16600;SDS011;34891;48.164;11.572;2022-08-21T12:12:01;3.25;;;2.92;;
16600;SDS011;34891;48.164;11.572;2022-08-21T12:17:16;3.88;;;2.90;;
16600;SDS011;34891;48.164;11.572;2022-08-21T12:22:20;3.10;;;2.30;;
16600;SDS011;34891;48.164;11.572;2022-08-21T12:27:26;5.50;;;2.85;;
16600;SDS011;34891;48.164;11.572;2022-08-21T12:32:42;5.82;;;2.60;;
16600;SDS011;34891;48.164;11.572;2022-08-21T12:37:45;3.03;;;2.72;;
16600;SDS011;34891;48.164;11.572;2022-08-21T12:42:50;4.80;;;2.50;;
16600;SDS011;34891;48.164;11.572;2022-08-21T12:48:04;2.63;;;2.08;;
16600;SDS011;34891;48.164;11.572;2022-08-21T12:53:09;3.70;;;2.30;;
16600;SDS011;34891;48.164;11.572;2022-08-21T12:58:22;4.88;;;2.42;;
16600;SDS011;34891;48.164;11.572;2022-08-21T13:03:26;4.10;;;2.35;;
16600;SDS011;34891;48.164;11.572;2022-08-21T13:08:30;4.57;;;2.38;;
16600;SDS011;34891;48.164;11.572;2022-08-21T13:13:40;5.57;;;2.20;;
16600;SDS011;34891;48.164;11.572;2022-08-21T13:18:56;3.10;;;2.42;;
16600;SDS011;34891;48.164;11.572;2022-08-21T13:24:11;7.95;;;2.47;;
16600;SDS011;34891;48.164;11.572;2022-08-21T13:29:35;5.10;;;2.30;;
16600;SDS011;34891;48.164;11.572;2022-08-21T13:34:40;4.15;;;2.13;;
16600;SDS011;34891;48.164;11.572;2022-08-21T13:39:47;3.42;;;2.50;;
16600;SDS011;34891;48.164;11.572;2022-08-21T13:44:50;3.50;;;2.47;;
16600;SDS011;34891;48.164;11.572;2022-08-21T13:49:56;5.13;;;2.30;;
16600;SDS011;34891;48.164;11.572;2022-08-21T13:55:00;2.75;;;2.35;;
16600;SDS011;34891;48.164;11.572;2022-08-21T14:05:18;2.85;;;2.25;;
16600;SDS011;34891;48.164;11.572;2022-08-21T14:10:22;2.38;;;2.13;;
16600;SDS011;34891;48.164;11.572;2022-08-21T14:15:32;3.45;;;2.30;;
16600;SDS011;34891;48.164;11.572;2022-08-21T14:20:37;3.95;;;2.10;;
16600;SDS011;34891;48.164;11.572;2022-08-21T14:25:41;4.05;;;2.20;;
16600;SDS011;34891;48.164;11.572;2022-08-21T14:30:45;3.97;;;2.10;;
16600;SDS011;34891;48.164;11.572;2022-08-21T14:35:53;3.15;;;2.47;;
16600;SDS011;34891;48.164;11.572;2022-08-21T14:40:57;5.30;;;3.10;;
16600;SDS011;34891;48.164;11.572;2022-08-21T14:46:01;4.20;;;2.53;;
16600;SDS011;34891;48.164;11.572;2022-08-21T14:51:06;4.70;;;2.17;;
16600;SDS011;34891;48.164;11.572;2022-08-21T14:56:09;5.72;;;3.45;;
16600;SDS011;34891;48.164;11.572;2022-08-21T15:01:12;3.28;;;2.15;;
16600;SDS011;34891;48.164;11.572;2022-08-21T15:06:17;4.30;;;2.45;;
16600;SDS011;34891;48.164;11.572;2022-08-21T15:11:22;3.25;;;2.33;;
16600;SDS011;34891;48.164;11.572;2022-08-21T15:16:43;5.53;;;2.58;;
16600;SDS011;34891;48.164;11.572;2022-08-21T15:21:47;5.38;;;2.67;;
16600;SDS011;34891;48.164;11.572;2022-08-21T15:26:58;5.55;;;3.63;;
16600;SDS011;34891;48.164;11.572;2022-08-21T15:32:14;5.07;;;2.92;;
16600;SDS011;34891;48.164;11.572;2022-08-21T15:37:19;5.63;;;2.70;;
16600;SDS011;34891;48.164;11.572;2022-08-21T15:42:22;4.88;;;2.70;;
16600;SDS011;34891;48.164;11.572;2022-08-21T15:47:28;5.88;;;2.60;;
16600;SDS011;34891;48.164;11.572;2022-08-21T15:52:33;6.45;;;2.88;;
16600;SDS011;34891;48.164;11.572;2022-08-21T15:57:36;10.27;;;5.03;;
16600;SDS011;34891;48.164;11.572;2022-08-21T16:02:40;7.95;;;3.38;;
16600;SDS011;34891;48.164;11.572;2022-08-21T16:07:46;4.13;;;2.38;;
16600;SDS011;34891;48.164;11.572;2022-08-21T16:12:52;6.28;;;2.83;;
16600;SDS011;34891;48.164;11.572;2022-08-21T16:17:57;5.28;;;2.30;;
16600;SDS011;34891;48.164;11.572;2022-08-21T16:23:01;4.13;;;2.28;;
16600;SDS011;34891;48.164;11.572;2022-08-21T16:28:04;8.88;;;3.10;;
16600;SDS011;34891;48.164;11.572;2022-08-21T16:33:11;8.65;;;2.50;;
16600;SDS011;34891;48.164;11.572;2022-08-21T16:38:19;7.57;;;2.90;;
16600;SDS011;34891;48.164;11.572;2022-08-21T16:43:22;10.52;;;5.05;;
16600;SDS011;34891;48.164;11.572;2022-08-21T16:48:26;5.25;;;2.83;;
16600;SDS011;34891;48.164;11.572;2022-08-21T16:53:31;5.25;;;2.70;;
16600;SDS011;34891;48.164;11.572;2022-08-21T16:58:35;4.90;;;3.42;;
16600;SDS011;34891;48.164;11.572;2022-08-21T17:03:42;6.88;;;3.17;;
16600;SDS011;34891;48.164;11.572;2022-08-21T17:08:54;7.35;;;3.03;;
16600;SDS011;34891;48.164;11.572;2022-08-21T17:13:57;4.75;;;2.42;;
16600;SDS011;34891;48.164;11.572;2022-08-21T17:19:05;5.38;;;2.67;;
16600;SDS011;34891;48.164;11.572;2022-08-21T17:24:10;7.43;;;2.95;;
16600;SDS011;34891;48.164;11.572;2022-08-21T17:29:15;3.85;;;2.50;;
16600;SDS011;34891;48.164;11.572;2022-08-21T17:34:19;7.45;;;3.60;;
16600;SDS011;34891;48.164;11.572;2022-08-21T17:39:24;7.05;;;2.75;;
16600;SDS011;34891;48.164;11.572;2022-08-21T17:44:27;6.43;;;2.70;;
16600;SDS011;34891;48.164;11.572;2022-08-21T17:49:30;4.78;;;2.85;;
16600;SDS011;34891;48.164;11.572;2022-08-21T17:54:35;6.53;;;3.38;;
16600;SDS011;34891;48.164;11.572;2022-08-21T17:59:37;6.15;;;3.25;;
16600;SDS011;34891;48.164;11.572;2022-08-21T18:04:41;8.18;;;3.10;;
16600;SDS011;34891;48.164;11.572;2022-08-21T18:09:46;3.65;;;2.53;;
16600;SDS011;34891;48.164;11.572;2022-08-21T18:14:49;9.50;;;3.50;;
16600;SDS011;34891;48.164;11.572;2022-08-21T18:19:51;6.63;;;3.47;;
16600;SDS011;34891;48.164;11.572;2022-08-21T18:24:55;6.38;;;3.15;;
16600;SDS011;34891;48.164;11.572;2022-08-21T18:29:58;6.35;;;3.28;;
16600;SDS011;34891;48.164;11.572;2022-08-21T18:35:02;9.55;;;4.82;;
16600;SDS011;34891;48.164;11.572;2022-08-21T18:40:07;7.30;;;3.90;;
16600;SDS011;34891;48.164;11.572;2022-08-21T18:45:11;7.80;;;3.55;;
16600;SDS011;34891;48.164;11.572;2022-08-21T18:50:15;6.78;;;3.55;;
16600;SDS011;34891;48.164;11.572;2022-08-21T18:55:19;19.52;;;10.27;;
16600;SDS011;34891;48.164;11.572;2022-08-21T19:00:26;20.92;;;11.73;;
16600;SDS011;34891;48.164;11.572;2022-08-21T19:05:30;14.95;;;6.28;;
16600;SDS011;34891;48.164;11.572;2022-08-21T19:10:35;14.88;;;6.95;;
16600;SDS011;34891;48.164;11.572;2022-08-21T19:15:43;9.38;;;4.78;;
16600;SDS011;34891;48.164;11.572;2022-08-21T19:20:50;24.60;;;11.85;;
16600;SDS011;34891;48.164;11.572;2022-08-21T19:25:55;16.17;;;8.10;;
16600;SDS011;34891;48.164;11.572;2022-08-21T19:31:03;12.77;;;6.90;;
16600;SDS011;34891;48.164;11.572;2022-08-21T19:36:11;14.70;;;5.50;;
16600;SDS011;34891;48.164;11.572;2022-08-21T19:46:23;9.65;;;4.97;;
16600;SDS011;34891;48.164;11.572;2022-08-21T19:51:27;17.40;;;7.63;;
16600;SDS011;34891;48.164;11.572;2022-08-21T19:56:31;11.25;;;5.75;;
16600;SDS011;34891;48.164;11.572;2022-08-21T20:07:01;11.02;;;5.03;;
16600;SDS011;34891;48.164;11.572;2022-08-21T20:12:08;10.02;;;4.97;;
16600;SDS011;34891;48.164;11.572;2022-08-21T20:17:13;11.30;;;5.00;;
16600;SDS011;34891;48.164;11.572;2022-08-21T20:22:19;10.30;;;5.55;;
16600;SDS011;34891;48.164;11.572;2022-08-21T20:27:25;10.80;;;5.13;;
16600;SDS011;34891;48.164;11.572;2022-08-21T20:32:28;13.43;;;6.38;;
16600;SDS011;34891;48.164;11.572;2022-08-21T20:37:34;14.75;;;6.88;;
16600;SDS011;34891;48.164;11.572;2022-08-21T20:42:57;11.55;;;5.43;;
16600;SDS011;34891;48.164;11.572;2022-08-21T20:48:02;11.02;;;5.15;;
16600;SDS011;34891;48.164;11.572;2022-08-21T20:58:10;12.60;;;6.23;;
16600;SDS011;34891;48.164;11.572;2022-08-21T21:03:16;12.27;;;6.00;;
16600;SDS011;34891;48.164;11.572;2022-08-21T21:08:31;14.27;;;6.22;;
16600;SDS011;34891;48.164;11.572;2022-08-21T21:13:37;11.25;;;5.55;;
16600;SDS011;34891;48.164;11.572;2022-08-21T21:18:45;18.35;;;9.27;;
16600;SDS011;34891;48.164;11.572;2022-08-21T21:23:49;16.20;;;7.70;;
16600;SDS011;34891;48.164;11.572;2022-08-21T21:28:55;12.77;;;5.68;;
16600;SDS011;34891;48.164;11.572;2022-08-21T21:33:59;12.50;;;6.88;;
16600;SDS011;34891;48.164;11.572;2022-08-21T21:39:06;28.67;;;13.82;;
16600;SDS011;34891;48.164;11.572;2022-08-21T21:44:18;15.13;;;6.85;;
16600;SDS011;34891;48.164;11.572;2022-08-21T21:54:53;10.63;;;5.72;;
16600;SDS011;34891;48.164;11.572;2022-08-21T22:00:00;13.30;;;5.80;;
16600;SDS011;34891;48.164;11.572;2022-08-21T22:05:07;13.23;;;5.90;;
16600;SDS011;34891;48.164;11.572;2022-08-21T22:10:14;14.38;;;6.32;;
16600;SDS011;34891;48.164;11.572;2022-08-21T22:15:32;12.65;;;6.13;;
16600;SDS011;34891;48.164;11.572;2022-08-21T22:20:36;14.63;;;5.97;;
16600;SDS011;34891;48.164;11.572;2022-08-21T22:25:41;12.95;;;6.38;;
16600;SDS011;34891;48.164;11.572;2022-08-21T22:30:47;14.00;;;6.22;;
16600;SDS011;34891;48.164;11.572;2022-08-21T22:35:54;15.98;;;7.22;;
16600;SDS011;34891;48.164;11.572;2022-08-21T22:41:09;14.18;;;6.60;;
16600;SDS011;34891;48.164;11.572;2022-08-21T22:46:14;14.05;;;6.82;;
16600;SDS011;34891;48.164;11.572;2022-08-21T22:51:25;14.85;;;6.68;;
16600;SDS011;34891;48.164;11.572;2022-08-21T22:56:31;11.40;;;5.97;;
16600;SDS011;34891;48.164;11.572;2022-08-21T23:01:38;17.48;;;7.15;;
16600;SDS011;34891;48.164;11.572;2022-08-21T23:06:43;17.00;;;7.30;;
16600;SDS011;34891;48.164;11.572;2022-08-21T23:11:47;17.45;;;7.32;;
16600;SDS011;34891;48.164;11.572;2022-08-21T23:17:12;12.57;;;6.22;;
16600;SDS011;34891;48.164;11.572;2022-08-21T23:22:23;15.57;;;7.07;;
16600;SDS011;34891;48.164;11.572;2022-08-21T23:27:32;14.43;;;6.50;;
16600;SDS011;34891;48.164;11.572;2022-08-21T23:32:51;14.73;;;6.78;;
16600;SDS011;34891;48.164;11.572;2022-08-21T23:38:03;13.00;;;6.70;;
16600;SDS011;34891;48.164;11.572;2022-08-21T23:43:15;14.02;;;6.65;;
16600;SDS011;34891;48.164;11.572;2022-08-21T23:48:24;16.92;;;7.00;;
16600;SDS011;34891;48.164;11.572;2022-08-21T23:53:32;12.38;;;6.55;;
16600;SDS011;34891;48.164;11.572;2022-08-21T23:58:42;19.33;;;7.38;;
